Time;durP1;ratioP1;P1;durP2;ratioP2;P2;SDS_P1;SDS_P2;PMS_P1;PMS_P2;Temp;Humidity;BMP_temperature;BMP_pressure;BME280_temperature;BME280_humidity;BME280_pressure;Samples;Min_cycle;Max_cycle;Signal;HPM_P1;HPM_P2
2024/01/30 00:02:21;;;;;;;14.05;5.60;;;11.30;99.90;;;;;;4936222;29;20034;-48
2024/01/30 00:04:47;;;;;;;15.70;5.47;;;11.30;99.90;;;;;;4936059;29;20031;-51
2024/01/30 00:07:12;;;;;;;11.20;5.28;;;11.30;99.90;;;;;;4936040;29;20040;-49
2024/01/30 00:09:41;;;;;;;10.05;4.53;;;11.30;99.90;;;;;;4936225;29;20031;-52
2024/01/30 00:12:07;;;;;;;9.93;4.68;;;11.30;99.90;;;;;;4935784;29;20035;-49
2024/01/30 00:14:33;;;;;;;11.63;4.60;;;11.30;99.90;;;;;;4936087;29;20059;-50
2024/01/30 00:16:58;;;;;;;13.52;4.70;;;11.30;99.90;;;;;;4935587;29;20026;-50
2024/01/30 00:19:24;;;;;;;17.67;5.72;;;11.30;99.90;;;;;;4935919;29;20027;-49
2024/01/30 00:21:51;;;;;;;11.48;4.65;;;11.40;99.90;;;;;;4935856;29;20098;-48
2024/01/30 00:24:17;;;;;;;12.10;4.82;;;11.40;99.90;;;;;;4935083;29;20028;-51
2024/01/30 00:26:42;;;;;;;15.88;5.03;;;11.40;99.90;;;;;;4935467;29;20044;-47
2024/01/30 00:29:08;;;;;;;11.90;5.07;;;11.50;99.90;;;;;;4935438;29;20039;-47
2024/01/30 00:31:35;;;;;;;10.25;5.18;;;11.50;99.90;;;;;;4931845;29;20032;-46
2024/01/30 00:34:00;;;;;;;11.57;5.28;;;11.60;99.90;;;;;;4933090;29;20058;-50
2024/01/30 00:36:29;;;;;;;16.55;5.05;;;11.50;99.90;;;;;;4935645;29;20059;-48
2024/01/30 00:38:55;;;;;;;22.10;5.80;;;11.60;99.90;;;;;;4936452;29;20027;-48
2024/01/30 00:41:20;;;;;;;18.48;5.65;;;11.60;99.90;;;;;;4934832;29;20114;-49
2024/01/30 00:43:46;;;;;;;10.35;4.55;;;11.60;99.90;;;;;;4936123;29;20031;-54
2024/01/30 00:46:12;;;;;;;11.40;4.57;;;11.50;99.90;;;;;;4936071;29;20036;-47
2024/01/30 00:48:37;;;;;;;17.02;4.80;;;11.60;99.90;;;;;;4935230;29;20118;-46
2024/01/30 00:51:03;;;;;;;13.95;4.68;;;11.60;99.90;;;;;;4935413;29;20027;-47
2024/01/30 00:53:29;;;;;;;18.05;5.10;;;11.60;99.90;;;;;;4935237;29;20024;-51
2024/01/30 00:55:54;;;;;;;10.75;4.28;;;11.60;99.90;;;;;;4935377;29;20039;-49
2024/01/30 00:58:20;;;;;;;13.32;5.43;;;11.60;99.90;;;;;;4934944;29;20051;-52
2024/01/30 01:00:46;;;;;;;18.05;5.93;;;11.60;99.90;;;;;;4935447;29;20028;-48
2024/01/30 01:03:11;;;;;;;9.77;5.05;;;11.60;99.90;;;;;;4935118;29;20028;-50
2024/01/30 01:05:37;;;;;;;12.20;5.65;;;11.60;99.90;;;;;;4935083;29;20031;-51
2024/01/30 01:08:02;;;;;;;19.63;5.47;;;11.60;99.90;;;;;;4935069;29;20130;-52
2024/01/30 01:10:28;;;;;;;18.65;5.53;;;11.60;99.90;;;;;;4934409;29;20030;-49
2024/01/30 01:12:54;;;;;;;20.08;6.13;;;11.50;99.90;;;;;;4934921;29;20042;-46
2024/01/30 01:15:19;;;;;;;12.32;5.32;;;11.60;99.90;;;;;;4934759;29;20024;-49
2024/01/30 01:17:46;;;;;;;17.88;4.93;;;11.50;99.90;;;;;;4934534;29;20094;-49
2024/01/30 01:20:11;;;;;;;12.98;4.85;;;11.40;99.90;;;;;;4934798;29;20046;-51
2024/01/30 01:22:38;;;;;;;16.63;5.05;;;11.40;99.90;;;;;;4935024;29;20028;-52
2024/01/30 01:25:08;;;;;;;19.65;4.28;;;11.40;99.90;;;;;;4934486;29;20032;-46
2024/01/30 01:27:34;;;;;;;12.88;4.35;;;11.30;99.90;;;;;;4934077;29;20044;-45
2024/01/30 01:30:00;;;;;;;11.98;3.78;;;11.30;99.90;;;;;;4934727;29;20043;-46
2024/01/30 01:32:26;;;;;;;9.98;3.15;;;11.20;99.90;;;;;;4934354;29;20063;-54
2024/01/30 01:34:51;;;;;;;10.88;2.83;;;11.10;99.90;;;;;;4934958;29;20074;-56
2024/01/30 01:37:17;;;;;;;9.45;2.75;;;11.10;99.90;;;;;;4934362;29;20028;-52
2024/01/30 01:39:43;;;;;;;11.65;3.00;;;11.00;99.90;;;;;;4934709;29;20023;-51
2024/01/30 01:42:09;;;;;;;6.80;2.42;;;11.00;99.90;;;;;;4934472;29;20023;-50
2024/01/30 01:44:34;;;;;;;12.95;2.90;;;10.90;99.90;;;;;;4934453;29;20054;-49
2024/01/30 01:47:01;;;;;;;6.07;2.15;;;10.90;99.90;;;;;;4934433;29;20119;-52
2024/01/30 01:49:28;;;;;;;14.43;2.50;;;10.80;99.90;;;;;;4934454;29;20071;-54
2024/01/30 01:51:56;;;;;;;7.55;2.25;;;10.70;99.90;;;;;;4934588;29;20042;-53
2024/01/30 01:54:24;;;;;;;8.50;1.88;;;10.70;99.90;;;;;;4934556;29;20035;-53
2024/01/30 01:56:50;;;;;;;10.23;1.70;;;10.60;99.90;;;;;;4934161;29;20111;-54
2024/01/30 01:59:17;;;;;;;7.55;1.77;;;10.60;99.90;;;;;;4934314;29;20420;-48
2024/01/30 02:01:45;;;;;;;5.35;1.20;;;10.50;99.90;;;;;;4933778;29;20027;-53
2024/01/30 02:04:11;;;;;;;6.35;1.25;;;10.40;99.90;;;;;;4934004;29;20034;-50
2024/01/30 02:06:38;;;;;;;6.43;0.98;;;10.40;99.90;;;;;;4933886;29;20036;-49
2024/01/30 02:09:04;;;;;;;9.80;1.23;;;10.30;99.90;;;;;;4934153;29;20110;-52
2024/01/30 02:11:30;;;;;;;9.10;1.52;;;10.30;99.90;;;;;;4934042;29;20031;-48
2024/01/30 02:13:56;;;;;;;4.15;1.30;;;10.30;99.90;;;;;;4934276;29;20107;-48
2024/01/30 02:16:21;;;;;;;19.25;2.35;;;10.30;99.90;;;;;;4934253;29;20064;-49
2024/01/30 02:18:47;;;;;;;6.93;1.42;;;10.30;99.90;;;;;;4933791;29;20111;-57
2024/01/30 02:21:17;;;;;;;8.57;0.90;;;10.20;99.90;;;;;;4933166;29;20040;-47
2024/01/30 02:23:48;;;;;;;3.92;0.60;;;10.20;99.90;;;;;;4933709;29;20193;-51
2024/01/30 02:26:13;;;;;;;4.55;1.17;;;10.10;99.90;;;;;;4933881;29;20062;-46
2024/01/30 02:28:39;;;;;;;4.32;0.85;;;10.10;99.90;;;;;;4933582;29;20391;-48
2024/01/30 02:31:05;;;;;;;4.75;0.73;;;10.10;99.90;;;;;;4933716;29;20078;-50
2024/01/30 02:33:31;;;;;;;2.28;0.70;;;10.00;99.90;;;;;;4933656;29;20038;-50
2024/01/30 02:35:57;;;;;;;7.32;0.70;;;10.00;99.90;;;;;;4933472;29;20115;-54
2024/01/30 02:38:23;;;;;;;6.47;1.00;;;10.00;99.90;;;;;;4933582;29;20024;-47
2024/01/30 02:40:49;;;;;;;7.50;0.90;;;9.90;99.90;;;;;;4933712;29;20031;-53
2024/01/30 02:43:16;;;;;;;1.58;0.50;;;10.00;99.90;;;;;;4933527;29;20046;-54
2024/01/30 02:45:42;;;;;;;1.95;0.60;;;9.90;99.90;;;;;;4933312;29;20396;-49
2024/01/30 02:48:07;;;;;;;2.17;0.55;;;9.90;99.90;;;;;;4933420;29;20043;-51
2024/01/30 02:50:33;;;;;;;2.20;0.70;;;9.80;99.90;;;;;;4933380;29;20031;-50
2024/01/30 02:52:59;;;;;;;3.80;0.77;;;9.80;99.90;;;;;;4933090;29;20098;-48
2024/01/30 02:55:24;;;;;;;5.15;1.08;;;9.70;99.90;;;;;;4933304;29;20059;-48
2024/01/30 02:57:50;;;;;;;7.45;1.35;;;9.60;99.90;;;;;;4933401;29;20061;-51
2024/01/30 03:00:16;;;;;;;7.70;1.20;;;9.60;99.90;;;;;;4933208;29;20046;-55
2024/01/30 03:02:41;;;;;;;4.57;0.70;;;9.50;99.90;;;;;;4933475;29;20028;-49
2024/01/30 03:05:08;;;;;;;2.33;0.70;;;9.50;99.90;;;;;;4933304;29;20094;-52
2024/01/30 03:07:34;;;;;;;3.10;0.50;;;9.50;99.90;;;;;;4933178;29;20471;-49
2024/01/30 03:10:00;;;;;;;5.40;0.80;;;9.50;99.90;;;;;;4932994;29;20168;-46
2024/01/30 03:12:25;;;;;;;5.32;0.90;;;9.50;99.90;;;;;;4933307;29;20071;-49
2024/01/30 03:14:51;;;;;;;4.95;0.85;;;9.50;99.90;;;;;;4933387;29;20058;-50
2024/01/30 03:17:17;;;;;;;2.40;0.68;;;9.50;99.90;;;;;;4933067;29;20038;-49
2024/01/30 03:19:42;;;;;;;2.83;1.02;;;9.50;99.90;;;;;;4933052;29;20031;-49
2024/01/30 03:22:08;;;;;;;3.70;0.88;;;9.50;99.90;;;;;;4932807;29;20376;-54
2024/01/30 03:24:34;;;;;;;2.05;0.57;;;9.50;99.90;;;;;;4933004;29;20026;-47
2024/01/30 03:26:59;;;;;;;3.08;0.90;;;9.50;99.90;;;;;;4933166;29;20515;-46
2024/01/30 03:29:25;;;;;;;3.45;0.50;;;9.50;99.90;;;;;;4933100;29;20046;-47
2024/01/30 03:31:51;;;;;;;3.45;0.73;;;9.50;99.90;;;;;;4933495;29;20028;-46
2024/01/30 03:34:16;;;;;;;5.85;1.02;;;9.50;99.90;;;;;;4937592;29;20479;-46
2024/01/30 03:36:42;;;;;;;7.47;1.52;;;9.40;99.90;;;;;;4937374;29;20427;-55
2024/01/30 03:39:08;;;;;;;2.30;0.63;;;9.40;99.90;;;;;;4938857;29;20023;-52
2024/01/30 03:41:34;;;;;;;4.85;1.13;;;9.40;99.90;;;;;;4938246;29;20055;-51
2024/01/30 03:43:59;;;;;;;6.90;1.30;;;9.40;99.90;;;;;;4936764;29;20094;-48
2024/01/30 03:46:25;;;;;;;4.50;0.82;;;9.30;99.90;;;;;;4936586;29;20079;-50
2024/01/30 03:48:50;;;;;;;5.00;1.02;;;9.30;99.90;;;;;;4936651;29;20038;-56
2024/01/30 03:51:16;;;;;;;4.20;0.85;;;9.30;99.90;;;;;;4936463;29;20024;-51
2024/01/30 03:53:42;;;;;;;4.03;0.70;;;9.20;99.90;;;;;;4936898;29;20495;-54
2024/01/30 03:56:09;;;;;;;3.60;0.65;;;9.20;99.90;;;;;;4936670;29;20488;-50
2024/01/30 03:58:34;;;;;;;2.60;0.60;;;9.20;99.90;;;;;;4936383;29;20031;-47
2024/01/30 04:01:00;;;;;;;7.70;1.20;;;9.20;99.90;;;;;;4936592;29;20407;-48
2024/01/30 04:03:26;;;;;;;1.23;0.47;;;9.20;99.90;;;;;;4936358;29;20028;-47
2024/01/30 04:05:52;;;;;;;3.88;0.80;;;9.10;99.90;;;;;;4936474;29;20045;-46
2024/01/30 04:08:18;;;;;;;5.53;1.02;;;9.10;99.90;;;;;;4934962;29;20488;-50
2024/01/30 04:10:44;;;;;;;2.60;0.63;;;9.10;99.90;;;;;;4936563;29;20024;-49
2024/01/30 04:13:10;;;;;;;2.05;0.63;;;9.10;99.90;;;;;;4936399;29;20031;-46
2024/01/30 04:15:35;;;;;;;4.13;0.77;;;9.10;99.90;;;;;;4936105;29;20559;-49
2024/01/30 04:18:01;;;;;;;1.35;0.55;;;9.00;99.90;;;;;;4936342;29;20027;-53
2024/01/30 04:20:27;;;;;;;5.10;0.70;;;9.00;99.90;;;;;;4935747;29;20024;-46
2024/01/30 04:22:52;;;;;;;4.90;0.68;;;9.00;99.90;;;;;;4936166;29;20067;-48
2024/01/30 04:25:18;;;;;;;2.70;0.80;;;9.00;99.90;;;;;;4936034;29;20042;-46
2024/01/30 04:27:44;;;;;;;3.22;0.68;;;9.00;99.90;;;;;;4936040;29;20439;-48
2024/01/30 04:30:10;;;;;;;0.90;0.40;;;9.00;99.90;;;;;;4935969;29;20039;-46
2024/01/30 04:32:36;;;;;;;2.85;0.80;;;9.00;99.90;;;;;;4921481;29;20030;-52
2024/01/30 04:35:03;;;;;;;4.32;0.80;;;9.00;99.90;;;;;;4916945;29;20020;-48
2024/01/30 04:37:28;;;;;;;4.25;0.75;;;9.00;99.90;;;;;;4916598;29;20028;-46
2024/01/30 04:39:54;;;;;;;3.72;0.60;;;9.00;99.90;;;;;;4916817;29;20030;-51
2024/01/30 04:42:20;;;;;;;3.05;0.73;;;9.00;99.90;;;;;;4916713;29;20024;-49
2024/01/30 04:44:45;;;;;;;5.78;1.58;;;9.00;99.90;;;;;;4916137;29;20020;-49
2024/01/30 04:47:11;;;;;;;7.82;1.08;;;9.00;99.90;;;;;;4916517;29;20067;-48
2024/01/30 04:49:39;;;;;;;1.88;0.63;;;9.00;99.90;;;;;;4916569;29;20032;-51
2024/01/30 04:52:06;;;;;;;1.27;0.60;;;9.00;99.90;;;;;;4916577;29;20113;-55
2024/01/30 04:54:32;;;;;;;6.60;0.60;;;9.00;99.90;;;;;;4916721;29;20028;-48
2024/01/30 04:56:58;;;;;;;7.00;0.82;;;9.10;99.90;;;;;;4916638;29;20040;-50
2024/01/30 04:59:24;;;;;;;9.77;0.82;;;9.00;99.90;;;;;;4916455;29;20028;-49
2024/01/30 05:01:49;;;;;;;2.83;0.63;;;9.10;99.90;;;;;;4916657;29;20411;-49
2024/01/30 05:04:15;;;;;;;7.90;0.88;;;9.10;99.90;;;;;;4916105;29;20392;-46
2024/01/30 05:06:41;;;;;;;4.05;1.13;;;9.10;99.90;;;;;;4916541;29;20028;-47
2024/01/30 05:09:07;;;;;;;4.05;0.88;;;9.00;99.90;;;;;;4916365;29;20036;-45
2024/01/30 05:11:38;;;;;;;3.17;1.10;;;9.10;99.90;;;;;;4916226;29;20024;-48
2024/01/30 05:14:04;;;;;;;4.72;0.88;;;9.00;99.90;;;;;;4916258;29;20032;-49
2024/01/30 05:16:29;;;;;;;4.18;0.90;;;9.00;99.90;;;;;;4915941;29;20028;-49
2024/01/30 05:18:55;;;;;;;9.27;1.52;;;9.00;99.90;;;;;;4916260;29;20044;-53
2024/01/30 05:21:20;;;;;;;5.70;0.70;;;9.00;99.90;;;;;;4915942;29;20512;-51
2024/01/30 05:23:46;;;;;;;2.72;0.80;;;8.90;99.90;;;;;;4916171;29;20055;-47
2024/01/30 05:26:12;;;;;;;4.70;0.82;;;8.90;99.90;;;;;;4916079;29;20056;-51
2024/01/30 05:28:37;;;;;;;5.07;1.33;;;8.90;99.90;;;;;;4915920;29;20032;-52
2024/01/30 05:31:03;;;;;;;5.45;1.17;;;8.90;99.90;;;;;;4915891;29;20028;-54
2024/01/30 05:33:29;;;;;;;5.10;0.77;;;8.90;99.90;;;;;;4915679;29;20369;-48
2024/01/30 05:35:54;;;;;;;2.50;0.88;;;8.80;99.90;;;;;;4915761;29;20036;-49
2024/01/30 05:38:20;;;;;;;3.63;0.60;;;8.80;99.90;;;;;;4915706;29;20031;-48
2024/01/30 05:40:46;;;;;;;1.75;0.75;;;8.80;99.90;;;;;;4915727;29;20067;-48
2024/01/30 05:43:12;;;;;;;3.78;1.20;;;8.80;99.90;;;;;;4915725;29;20039;-52
2024/01/30 05:45:37;;;;;;;8.73;1.42;;;8.80;99.90;;;;;;4915405;29;20020;-51
2024/01/30 05:48:04;;;;;;;4.03;0.70;;;8.70;99.90;;;;;;4915501;29;20552;-48
2024/01/30 05:50:30;;;;;;;5.68;1.08;;;8.80;99.90;;;;;;4915793;29;20035;-51
2024/01/30 05:52:56;;;;;;;1.70;0.70;;;8.80;99.90;;;;;;4915555;29;20071;-48
2024/01/30 05:55:21;;;;;;;3.00;1.50;;;8.70;99.90;;;;;;4914833;29;20052;-49
2024/01/30 05:57:47;;;;;;;4.05;0.73;;;8.70;99.90;;;;;;4914945;29;20484;-47
2024/01/30 06:00:13;;;;;;;4.40;0.93;;;8.70;99.90;;;;;;4915325;29;20116;-49
2024/01/30 06:02:39;;;;;;;0.85;0.50;;;8.70;99.90;;;;;;4915377;29;20037;-50
2024/01/30 06:05:05;;;;;;;4.82;0.90;;;8.70;99.90;;;;;;4915289;29;20021;-49
2024/01/30 06:07:31;;;;;;;2.97;0.85;;;8.80;99.90;;;;;;4915108;29;20036;-49
2024/01/30 06:09:56;;;;;;;2.88;0.95;;;8.70;99.90;;;;;;4915360;29;20107;-51
2024/01/30 06:12:22;;;;;;;3.72;1.65;;;8.70;99.90;;;;;;4915127;29;20451;-51
2024/01/30 06:14:48;;;;;;;5.65;1.20;;;8.70;99.90;;;;;;4915001;29;20160;-49
2024/01/30 06:17:13;;;;;;;3.40;1.15;;;8.70;99.90;;;;;;4914944;29;20119;-52
2024/01/30 06:19:39;;;;;;;6.07;1.25;;;8.70;99.90;;;;;;4914899;29;20024;-50
2024/01/30 06:22:05;;;;;;;5.72;0.80;;;8.70;99.90;;;;;;4914990;29;20038;-49
2024/01/30 06:24:30;;;;;;;4.20;0.82;;;8.70;99.90;;;;;;4914911;29;20074;-53
2024/01/30 06:26:56;;;;;;;4.97;1.30;;;8.70;99.90;;;;;;4914813;29;20044;-46
2024/01/30 06:29:22;;;;;;;6.55;1.38;;;8.80;99.90;;;;;;4915344;29;20372;-51
2024/01/30 06:31:47;;;;;;;6.20;0.88;;;8.80;99.90;;;;;;4915621;29;20051;-52
2024/01/30 06:34:13;;;;;;;8.90;0.88;;;8.80;99.90;;;;;;4916065;29;20035;-49
2024/01/30 06:36:39;;;;;;;7.03;1.13;;;8.80;99.90;;;;;;4915874;29;20100;-50
2024/01/30 06:39:05;;;;;;;4.57;1.02;;;8.70;99.90;;;;;;4916764;29;20016;-53
2024/01/30 06:41:31;;;;;;;4.88;0.85;;;8.70;99.90;;;;;;4913926;29;20043;-46
2024/01/30 06:43:56;;;;;;;2.92;1.13;;;8.80;99.90;;;;;;4918046;29;20031;-52
2024/01/30 06:46:22;;;;;;;5.45;1.02;;;8.70;99.90;;;;;;4910956;29;20107;-47
2024/01/30 06:48:48;;;;;;;5.60;0.68;;;8.70;99.90;;;;;;4918696;29;20044;-52
2024/01/30 06:51:13;;;;;;;0.70;0.50;;;8.70;99.90;;;;;;4932244;29;20051;-51
2024/01/30 06:53:39;;;;;;;2.42;0.80;;;8.70;99.90;;;;;;4930835;29;20032;-50
2024/01/30 06:56:05;;;;;;;0.90;0.50;;;8.70;99.90;;;;;;4932384;29;20059;-46
2024/01/30 06:58:32;;;;;;;3.50;0.68;;;8.70;99.90;;;;;;4931752;29;20373;-47
2024/01/30 07:00:57;;;;;;;1.90;0.60;;;8.70;99.90;;;;;;4930153;29;20424;-46
2024/01/30 07:03:23;;;;;;;2.53;0.95;;;8.70;99.90;;;;;;4932393;29;20602;-51
2024/01/30 07:05:49;;;;;;;1.67;0.70;;;8.70;99.90;;;;;;4930805;29;20427;-50
2024/01/30 07:08:18;;;;;;;0.95;0.50;;;8.70;99.90;;;;;;4931902;29;20075;-53
2024/01/30 07:10:44;;;;;;;;;;;8.70;99.90;;;;;;4931061;29;20103;-50
2024/01/30 07:13:11;;;;;;;1.92;0.40;;;8.60;99.90;;;;;;4932286;29;19957;-51
2024/01/30 07:15:36;;;;;;;1.08;0.47;;;8.60;99.90;;;;;;4931319;29;20042;-48
2024/01/30 07:18:03;;;;;;;1.52;0.50;;;8.50;99.90;;;;;;4931865;29;20024;-49
2024/01/30 07:20:30;;;;;;;0.80;0.57;;;8.50;99.90;;;;;;4931790;29;20028;-50
2024/01/30 07:22:56;;;;;;;0.50;0.50;;;8.50;99.90;;;;;;4930870;29;20028;-46
2024/01/30 07:25:26;;;;;;;0.32;0.32;;;8.50;99.90;;;;;;4932050;29;20086;-48
2024/01/30 07:27:52;;;;;;;1.65;0.40;;;8.50;99.90;;;;;;4930679;29;20032;-49
2024/01/30 07:30:19;;;;;;;0.65;0.40;;;8.40;99.90;;;;;;4931984;29;20016;-47
2024/01/30 07:32:45;;;;;;;0.88;0.40;;;8.40;99.90;;;;;;4930891;29;20027;-53
2024/01/30 07:35:11;;;;;;;0.82;0.40;;;8.40;99.90;;;;;;4932013;29;20015;-49
2024/01/30 07:37:37;;;;;;;0.68;0.52;;;8.40;99.90;;;;;;4931647;29;20111;-48
2024/01/30 07:40:03;;;;;;;0.45;0.45;;;8.40;99.90;;;;;;4929691;29;20087;-48
2024/01/30 07:42:29;;;;;;;1.17;0.50;;;8.40;99.90;;;;;;4914655;29;20024;-50
2024/01/30 07:44:55;;;;;;;0.75;0.50;;;8.40;99.90;;;;;;4914372;29;20024;-47
2024/01/30 07:47:21;;;;;;;1.52;0.60;;;8.30;99.90;;;;;;4912814;29;20035;-46
2024/01/30 07:49:46;;;;;;;2.80;1.00;;;8.30;99.90;;;;;;4913284;29;20036;-50
2024/01/30 07:52:12;;;;;;;6.03;1.95;;;8.30;99.90;;;;;;4928468;29;20082;-46
2024/01/30 07:54:41;;;;;;;1.38;0.68;;;8.30;99.90;;;;;;4930564;29;20032;-50
2024/01/30 07:57:07;;;;;;;2.85;0.45;;;8.30;99.90;;;;;;4928736;29;20079;-48
2024/01/30 07:59:32;;;;;;;0.30;0.30;;;8.30;99.90;;;;;;4931184;29;20032;-52
2024/01/30 08:01:58;;;;;;;0.60;0.50;;;8.30;99.90;;;;;;4928563;29;20416;-49
2024/01/30 08:04:24;;;;;;;1.65;0.50;;;8.20;99.90;;;;;;4930059;29;20038;-52
2024/01/30 08:06:49;;;;;;;1.95;0.50;;;8.20;99.90;;;;;;4928108;29;20115;-54
2024/01/30 08:09:15;;;;;;;1.10;0.68;;;8.20;99.90;;;;;;4927289;29;20059;-48
2024/01/30 08:11:40;;;;;;;2.15;0.65;;;8.10;99.90;;;;;;4928392;29;20027;-52
2024/01/30 08:14:06;;;;;;;4.65;0.80;;;8.10;99.90;;;;;;4924778;29;20360;-48
2024/01/30 08:16:32;;;;;;;2.65;0.65;;;8.10;99.90;;;;;;4927118;29;20040;-49
2024/01/30 08:18:57;;;;;;;1.08;0.75;;;8.10;99.90;;;;;;4932826;29;20023;-52
2024/01/30 08:21:24;;;;;;;2.53;0.60;;;8.10;99.90;;;;;;4934258;29;20027;-46
2024/01/30 08:23:49;;;;;;;4.25;1.35;;;8.10;99.90;;;;;;4930879;29;20028;-50
2024/01/30 08:26:15;;;;;;;3.97;1.02;;;8.10;99.90;;;;;;4928629;29;20122;-55
2024/01/30 08:28:40;;;;;;;1.02;0.63;;;8.10;99.90;;;;;;4932247;29;20141;-55
2024/01/30 08:31:06;;;;;;;1.30;0.80;;;8.10;99.90;;;;;;4926780;29;20464;-54
2024/01/30 08:33:32;;;;;;;2.08;0.75;;;8.20;99.90;;;;;;4916961;29;20032;-52
2024/01/30 08:35:57;;;;;;;1.75;0.88;;;8.10;99.90;;;;;;4917114;29;20024;-56
2024/01/30 08:38:23;;;;;;;2.83;1.10;;;8.10;99.90;;;;;;4916922;29;20035;-47
2024/01/30 08:40:49;;;;;;;2.28;1.10;;;8.20;99.90;;;;;;4916651;29;20432;-55
2024/01/30 08:43:15;;;;;;;5.85;1.08;;;8.10;99.90;;;;;;4916989;29;20040;-52
2024/01/30 08:45:41;;;;;;;2.03;0.98;;;8.10;99.90;;;;;;4915200;29;20028;-49
2024/01/30 08:48:07;;;;;;;1.73;0.90;;;8.10;99.90;;;;;;4916794;29;20063;-45
2024/01/30 08:50:33;;;;;;;4.38;1.38;;;8.10;99.90;;;;;;4916640;29;20064;-49
2024/01/30 08:52:59;;;;;;;3.33;1.50;;;8.10;99.90;;;;;;4916746;29;20490;-52
2024/01/30 08:55:24;;;;;;;4.78;1.38;;;8.10;99.90;;;;;;4915744;29;20338;-55
2024/01/30 08:57:51;;;;;;;6.43;1.40;;;8.10;99.90;;;;;;4916580;29;20056;-49
2024/01/30 09:00:17;;;;;;;3.25;1.35;;;8.10;99.90;;;;;;4916010;29;20578;-46
2024/01/30 09:02:43;;;;;;;4.22;1.85;;;8.10;99.90;;;;;;4924614;29;20138;-54
2024/01/30 09:05:09;;;;;;;5.93;1.70;;;8.10;99.90;;;;;;4924552;29;20016;-49
2024/01/30 09:07:34;;;;;;;3.35;1.33;;;8.10;99.90;;;;;;4922544;29;20031;-50
2024/01/30 09:10:00;;;;;;;5.03;1.90;;;8.10;99.90;;;;;;4923793;29;20047;-48
2024/01/30 09:12:25;;;;;;;3.38;1.40;;;8.10;99.90;;;;;;4923938;29;20067;-48
2024/01/30 09:14:51;;;;;;;2.88;1.52;;;8.10;99.90;;;;;;4927490;29;20115;-51
2024/01/30 09:17:17;;;;;;;2.95;1.30;;;8.10;99.90;;;;;;4922568;29;20395;-56
2024/01/30 09:19:42;;;;;;;2.72;1.10;;;8.20;99.90;;;;;;4927824;29;20071;-49
2024/01/30 09:22:08;;;;;;;2.28;1.10;;;8.20;99.90;;;;;;4923687;29;20024;-47
2024/01/30 09:24:34;;;;;;;2.38;1.25;;;8.20;99.90;;;;;;4926080;29;20020;-47
2024/01/30 09:27:00;;;;;;;1.90;0.93;;;8.20;99.90;;;;;;4925159;29;20040;-49
2024/01/30 09:29:26;;;;;;;3.10;1.00;;;8.20;99.90;;;;;;4917937;29;20503;-54
2024/01/30 09:31:52;;;;;;;2.35;1.00;;;8.20;99.90;;;;;;4923707;29;20050;-45
2024/01/30 09:34:17;;;;;;;6.07;1.20;;;8.20;99.90;;;;;;4918707;29;20047;-48
2024/01/30 09:36:43;;;;;;;4.57;1.45;;;8.30;99.90;;;;;;4913817;29;20083;-49
2024/01/30 09:39:09;;;;;;;4.35;0.80;;;8.30;99.90;;;;;;4900582;29;20073;-49
2024/01/30 09:41:45;;;;;;;2.30;1.27;;;8.30;99.90;;;;;;4909952;29;20393;-51
2024/01/30 09:44:12;;;;;;;3.72;0.80;;;8.30;99.90;;;;;;4908213;29;20011;-54
2024/01/30 09:46:38;;;;;;;2.92;0.95;;;8.40;99.90;;;;;;4906983;29;20485;-49
2024/01/30 09:49:06;;;;;;;1.95;1.10;;;8.50;99.90;;;;;;4918967;29;20043;-49
2024/01/30 09:51:32;;;;;;;2.90;1.02;;;8.50;99.90;;;;;;4916146;29;20067;-48
2024/01/30 09:53:58;;;;;;;2.47;0.98;;;8.50;99.90;;;;;;4913883;29;20079;-55
2024/01/30 09:56:24;;;;;;;1.35;0.80;;;8.60;99.90;;;;;;4927235;29;20495;-47
2024/01/30 09:58:49;;;;;;;4.82;1.55;;;8.70;99.90;;;;;;4932228;29;20458;-50
2024/01/30 10:01:18;;;;;;;2.25;0.90;;;8.80;99.90;;;;;;4932605;29;20539;-51
2024/01/30 10:03:44;;;;;;;1.13;0.75;;;8.80;99.90;;;;;;4931066;29;20098;-46
2024/01/30 10:06:10;;;;;;;2.28;0.65;;;8.80;99.90;;;;;;4920101;29;20078;-49
2024/01/30 10:08:36;;;;;;;3.67;0.80;;;8.80;99.90;;;;;;4934247;29;20059;-51
2024/01/30 10:11:03;;;;;;;2.38;0.93;;;8.90;99.90;;;;;;4919915;29;20429;-46
2024/01/30 10:13:29;;;;;;;0.57;0.55;;;8.80;99.90;;;;;;4932717;29;20403;-54
2024/01/30 10:15:55;;;;;;;1.65;0.70;;;8.80;99.90;;;;;;4933928;29;20493;-55
2024/01/30 10:18:23;;;;;;;1.27;0.50;;;8.80;99.90;;;;;;4933952;29;20111;-50
2024/01/30 10:20:48;;;;;;;0.90;0.60;;;8.70;99.90;;;;;;4933542;29;20028;-49
2024/01/30 10:23:14;;;;;;;4.32;0.70;;;8.70;99.90;;;;;;4933876;29;20031;-48
2024/01/30 10:25:40;;;;;;;1.58;0.70;;;8.80;99.90;;;;;;4933846;29;20044;-51
2024/01/30 10:28:06;;;;;;;4.18;0.75;;;8.90;99.90;;;;;;4933600;29;20032;-58
2024/01/30 10:30:31;;;;;;;2.00;0.88;;;8.80;99.90;;;;;;4934010;29;20028;-60
2024/01/30 10:32:57;;;;;;;1.38;0.73;;;8.80;99.90;;;;;;4933882;29;20387;-61
2024/01/30 10:35:23;;;;;;;2.58;1.17;;;8.80;99.90;;;;;;4933727;29;20039;-50
2024/01/30 10:37:49;;;;;;;2.05;0.90;;;8.80;99.90;;;;;;4933580;29;20023;-48
2024/01/30 10:40:17;;;;;;;1.58;0.88;;;8.90;99.90;;;;;;4929079;29;20411;-51
2024/01/30 10:42:44;;;;;;;1.17;0.70;;;8.90;99.90;;;;;;4906744;29;20028;-55
2024/01/30 10:45:17;;;;;;;3.03;1.20;;;8.90;99.90;;;;;;4910189;29;20028;-50
2024/01/30 10:47:52;;;;;;;1.33;0.80;;;8.90;99.90;;;;;;4914755;29;20079;-50
2024/01/30 10:50:18;;;;;;;3.67;1.20;;;8.90;99.90;;;;;;4914649;29;20396;-51
2024/01/30 10:52:45;;;;;;;2.35;1.00;;;9.00;99.90;;;;;;4910630;29;20391;-53
2024/01/30 10:55:11;;;;;;;2.30;1.02;;;9.10;99.90;;;;;;4901587;29;20045;-51
2024/01/30 10:57:37;;;;;;;1.92;1.05;;;9.10;99.90;;;;;;4919822;29;20122;-45
2024/01/30 11:00:12;;;;;;;2.42;1.02;;;9.10;99.90;;;;;;4917400;29;20027;-46
2024/01/30 11:02:46;;;;;;;2.58;1.50;;;9.10;99.90;;;;;;4920153;29;20020;-49
2024/01/30 11:05:13;;;;;;;2.95;1.27;;;9.10;99.90;;;;;;4917666;29;20397;-48
2024/01/30 11:07:41;;;;;;;3.03;1.45;;;9.10;99.90;;;;;;4920197;29;20098;-45
2024/01/30 11:10:09;;;;;;;2.13;1.10;;;9.10;99.90;;;;;;4916891;29;20020;-48
2024/01/30 11:12:43;;;;;;;4.10;1.40;;;9.10;99.90;;;;;;4912563;29;20133;-51
2024/01/30 11:15:16;;;;;;;2.45;1.20;;;9.10;99.90;;;;;;4905661;29;20152;-52
2024/01/30 11:17:53;;;;;;;2.30;1.10;;;9.10;99.90;;;;;;4910179;29;20043;-43
2024/01/30 11:20:25;;;;;;;4.20;1.30;;;9.20;99.90;;;;;;4911902;29;20055;-47
2024/01/30 11:22:53;;;;;;;2.42;1.60;;;9.20;99.90;;;;;;4921919;29;20070;-55
2024/01/30 11:25:22;;;;;;;6.05;1.67;;;9.20;99.90;;;;;;4915643;29;20393;-46
2024/01/30 11:27:51;;;;;;;4.00;1.40;;;9.20;99.90;;;;;;4917833;29;20510;-52
2024/01/30 11:30:31;;;;;;;4.03;1.25;;;9.10;99.90;;;;;;4932825;29;20506;-49
2024/01/30 11:33:08;;;;;;;2.70;1.23;;;9.10;99.90;;;;;;4932946;29;20050;-49
2024/01/30 11:35:39;;;;;;;2.95;1.52;;;9.10;99.90;;;;;;4921647;29;20040;-47
2024/01/30 11:38:06;;;;;;;5.43;1.58;;;9.10;99.90;;;;;;4929829;29;20035;-48
2024/01/30 11:40:33;;;;;;;5.85;2.10;;;9.10;99.90;;;;;;4921579;29;20063;-45
2024/01/30 11:43:00;;;;;;;6.03;2.22;;;9.10;99.90;;;;;;4914047;29;20480;-44
2024/01/30 11:45:29;;;;;;;4.50;1.95;;;9.10;99.90;;;;;;4913949;29;20460;-45
2024/01/30 11:47:55;;;;;;;4.95;2.00;;;9.20;99.90;;;;;;4912317;29;20043;-51
2024/01/30 11:50:21;;;;;;;2.40;1.35;;;9.20;99.90;;;;;;4912058;29;20067;-48
2024/01/30 11:52:48;;;;;;;3.70;1.73;;;9.20;99.90;;;;;;4911414;29;20040;-55
2024/01/30 11:55:14;;;;;;;6.63;1.63;;;9.20;99.90;;;;;;4916874;29;20059;-47
2024/01/30 11:57:40;;;;;;;5.35;1.60;;;9.20;99.90;;;;;;4902754;29;20027;-49
2024/01/30 12:00:13;;;;;;;4.85;1.95;;;9.10;99.90;;;;;;4915261;29;20167;-55
2024/01/30 12:02:40;;;;;;;5.72;1.98;;;9.20;99.90;;;;;;4915352;29;20035;-47
2024/01/30 12:05:06;;;;;;;10.02;2.28;;;9.20;99.90;;;;;;4915218;29;20561;-50
2024/01/30 12:07:32;;;;;;;3.50;1.60;;;9.10;99.90;;;;;;4915007;29;20049;-50
2024/01/30 12:09:58;;;;;;;5.90;1.83;;;9.10;99.90;;;;;;4915513;29;20028;-47
2024/01/30 12:12:28;;;;;;;5.95;1.85;;;9.10;99.90;;;;;;4916170;29;20028;-54
2024/01/30 12:14:54;;;;;;;8.05;1.80;;;9.10;99.90;;;;;;4917024;29;20032;-48
2024/01/30 12:17:34;;;;;;;4.53;1.60;;;9.10;99.90;;;;;;4916938;29;20028;-53
2024/01/30 12:20:04;;;;;;;5.82;1.67;;;9.10;99.90;;;;;;4917128;29;20055;-52
2024/01/30 12:22:30;;;;;;;5.35;1.90;;;9.20;99.90;;;;;;4904431;29;20036;-52
2024/01/30 12:24:55;;;;;;;5.05;1.90;;;9.20;99.90;;;;;;4929227;29;20028;-54
2024/01/30 12:27:21;;;;;;;4.25;1.75;;;9.20;99.90;;;;;;4923243;29;20635;-52
2024/01/30 12:29:47;;;;;;;5.05;1.80;;;9.20;99.90;;;;;;4922478;29;20047;-50
2024/01/30 12:32:16;;;;;;;5.35;1.75;;;9.10;99.90;;;;;;4917747;29;20480;-49
2024/01/30 12:34:42;;;;;;;;;;;9.10;99.90;;;;;;4920434;29;20028;-52
2024/01/30 12:37:09;;;;;;;5.43;1.73;;;9.10;99.90;;;;;;4920357;29;20378;-51
2024/01/30 12:39:35;;;;;;;3.95;1.52;;;9.10;99.90;;;;;;4920644;29;20068;-48
2024/01/30 12:42:01;;;;;;;5.82;1.98;;;9.10;99.90;;;;;;4918255;29;20467;-53
2024/01/30 12:44:27;;;;;;;6.25;2.00;;;9.10;99.90;;;;;;4916457;29;20142;-49
2024/01/30 12:46:54;;;;;;;2.15;1.35;;;9.10;99.90;;;;;;4916676;29;20134;-49
2024/01/30 12:49:21;;;;;;;7.60;1.85;;;9.10;99.90;;;;;;4916714;29;20653;-53